Dodge City Regional Airport


Codes: KDDC/DDC
Name: Dodge City Regional Airport
City: Dodge City
Country: United States
Elevation: 2594 ft.
Wikipedia:

Photos at Dodge City Regional Airport


   Photos courtesy of SpottingLog. You can add your own sightings and photos by signing up for a free trial today.



No photos found.

Weather at Dodge City Regional Airport


Time (UTC)DescriptionTempratureWindCloud coverageVisibilityPressureHumidity
19-Apr-2024 03:00Clear Sky8°C9 mph, NE0%10000m1024hPa45%
19-Apr-2024 06:00Few Clouds7°C9 mph, E16%10000m1025hPa48%
19-Apr-2024 09:00Broken Clouds5°C7 mph, E65%10000m1025hPa51%
19-Apr-2024 12:00Overcast Clouds3°C4 mph, SE97%10000m1027hPa53%
19-Apr-2024 15:00Overcast Clouds9°C9 mph, SE100%10000m1027hPa36%
19-Apr-2024 18:00Broken Clouds14°C11 mph, SE82%10000m1023hPa29%
19-Apr-2024 21:00Overcast Clouds16°C9 mph, SE90%10000m1020hPa29%
20-Apr-2024 00:00Broken Clouds15°C11 mph, SE57%10000m1020hPa32%
20-Apr-2024 03:00Broken Clouds9°C11 mph, SE73%10000m1023hPa48%
20-Apr-2024 06:00Scattered Clouds6°C11 mph, E42%10000m1026hPa56%
20-Apr-2024 09:00Overcast Clouds8°C11 mph, E100%10000m1027hPa56%
20-Apr-2024 12:00Overcast Clouds6°C13 mph, NE100%10000m1029hPa81%
20-Apr-2024 15:00Overcast Clouds6°C13 mph, E100%10000m1030hPa74%
20-Apr-2024 18:00Light Rain6°C13 mph, E100%10000m1029hPa83%
20-Apr-2024 21:00Overcast Clouds6°C11 mph, E100%10000m1028hPa81%
21-Apr-2024 00:00Light Rain6°C9 mph, E100%10000m1028hPa86%
21-Apr-2024 03:00Light Rain5°C9 mph, E100%10000m1029hPa91%
21-Apr-2024 06:00Light Rain4°C4 mph, E100%10000m1029hPa94%
21-Apr-2024 09:00Light Rain4°C2 mph, SE100%10000m1028hPa94%
21-Apr-2024 12:00Overcast Clouds5°C4 mph, S100%10000m1028hPa92%
21-Apr-2024 15:00Overcast Clouds6°C9 mph, S100%10000m1027hPa87%
21-Apr-2024 18:00Overcast Clouds9°C9 mph, SW100%10000m1025hPa72%
21-Apr-2024 21:00Overcast Clouds11°C11 mph, S100%10000m1021hPa62%
22-Apr-2024 00:00Overcast Clouds12°C13 mph, S98%10000m1019hPa63%
22-Apr-2024 03:00Few Clouds6°C16 mph, SE15%10000m1019hPa90%
22-Apr-2024 06:00Clear Sky6°C18 mph, S7%10000m1018hPa88%
22-Apr-2024 09:00Clear Sky6°C20 mph, S0%10000m1015hPa90%
22-Apr-2024 12:00Clear Sky7°C20 mph, S1%10000m1013hPa92%
22-Apr-2024 15:00Clear Sky15°C22 mph, SW5%10000m1010hPa61%
22-Apr-2024 18:00Clear Sky23°C22 mph, SW4%10000m1006hPa38%
22-Apr-2024 21:00Clear Sky29°C16 mph, SW2%10000m1001hPa23%
23-Apr-2024 00:00Few Clouds28°C9 mph, S17%10000m999hPa26%
23-Apr-2024 03:00Light Rain14°C18 mph, NE86%10000m1007hPa71%
23-Apr-2024 06:00Overcast Clouds11°C13 mph, NE90%10000m1008hPa91%
23-Apr-2024 09:00Broken Clouds11°C18 mph, NE70%10000m1011hPa84%
23-Apr-2024 12:00Scattered Clouds9°C11 mph, N41%10000m1015hPa83%
23-Apr-2024 15:00Few Clouds15°C20 mph, N15%10000m1016hPa37%
23-Apr-2024 18:00Few Clouds19°C20 mph, N16%10000m1018hPa25%
23-Apr-2024 21:00Few Clouds20°C18 mph, N23%10000m1018hPa24%
24-Apr-2024 00:00Few Clouds18°C13 mph, NE18%10000m1018hPa27%